Weather History for KMDQ - March, 2013

Change the Weather History Date:

Sunday, March 17, 2013

  Actual Average (KHSV) Record (KHSV)
Temperature  
Mean Temperature 60 °F 54 °F  
Max Temperature 69 °F 65 °F 82 °F (1963)
Min Temperature 50 °F 42 °F 21 °F (1956)
Degree Days  
Heating Degree Days 6 12  
Month to date heating degree days 232  
Since 1 July heating degree days 2684  
Growing Degree Days 10 (Base 50)    
Moisture  
Dew Point 43 °F    
Average Humidity 54    
Maximum Humidity 82    
Minimum Humidity 31    
Precipitation  
Precipitation 0.00 in 0.16 in 2.46 in (1980)
Month to date precipitation 2.82  
Year to date precipitation 12.55  
Snow  
Snow 0.00 in - - ()
Month to date snowfall  
Since 1 July snowfall  
Snow Depth -    
Sea Level Pressure  
Sea Level Pressure 29.91 in    
Wind  
Wind Speed 7 mph (SSW)    
Max Wind Speed 16 mph    
Max Gust Speed 23 mph    
Visibility 10 miles    
Events      
T = Trace of Precipitation, MM = Missing Value Source: NWS Daily Summary

Daily Weather History Graph

Daily Weather History Graph

Search for Another Location

Airport or City:

Trip Planner

Search our weather history database for the weather conditions in past years. The results will help you decide how hot, cold, wet, or windy it might be!

Date:

Astronomy

Mar. 17, 2013 Rise Set
Actual Time 6:53 AM CDT 6:55 PM CDT
Civil Twilight 6:28 AM CDT 7:20 PM CDT
Nautical Twilight 5:59 AM CDT 7:50 PM CDT
Astronomical Twilight 5:29 AM CDT 8:20 PM CDT
Moon 10:18 AM CDT (3/17) No Moon Set
Length of Visible Light 12h 52m
Length of Day
12h 02m
Waxing Crescent, 31% of the Moon is Illuminated
Mar 17
Waxing Crescent
Mar 19
First Quarter
Mar 27
Full
Apr 2
Last Quarter
Apr 10
New

Hourly Weather History & Observations

Time (CDT) Temp. Dew Point Humidity Pressure Visibility Wind Dir Wind Speed Gust Speed Precip Events Conditions
12:15 AM 50.0 °F 44.6 °F 82% 29.94 in 10.0 mi Calm Calm - N/A   Clear
12:35 AM 50.0 °F 44.6 °F 82% 29.94 in 10.0 mi Calm Calm - N/A   Clear
12:55 AM 50.0 °F 44.6 °F 82% 29.94 in 10.0 mi Calm Calm - N/A   Clear
1:15 AM 51.8 °F 44.6 °F 76% 29.93 in 10.0 mi South 4.6 mph - N/A   Clear
1:35 AM 55.4 °F 42.8 °F 63% 29.92 in 10.0 mi South 4.6 mph - N/A   Clear
1:55 AM 59.0 °F 41.0 °F 51% 29.92 in 10.0 mi South 5.8 mph - N/A   Clear
2:15 AM 57.2 °F 41.0 °F 55% 29.92 in 10.0 mi South 6.9 mph - N/A   Clear
2:35 AM 59.0 °F 41.0 °F 51% 29.92 in 10.0 mi South 8.1 mph - N/A   Clear
2:55 AM 57.2 °F 41.0 °F 55% 29.92 in 10.0 mi SSW 11.5 mph - N/A   Clear
3:15 AM 55.4 °F 42.8 °F 63% 29.92 in 10.0 mi SSW 8.1 mph - N/A   Clear
3:35 AM 55.4 °F 42.8 °F 63% 29.92 in 10.0 mi SSW 9.2 mph - N/A   Clear
3:55 AM 55.4 °F 42.8 °F 63% 29.92 in 10.0 mi SSW 9.2 mph - N/A   Clear
4:15 AM 55.4 °F 42.8 °F 63% 29.92 in 10.0 mi SSW 10.4 mph - N/A   Clear
4:35 AM 55.4 °F 42.8 °F 63% 29.92 in 10.0 mi SSW 9.2 mph - N/A   Clear
4:55 AM 55.4 °F 42.8 °F 63% 29.92 in 10.0 mi SSW 9.2 mph - N/A   Clear
5:15 AM 53.6 °F 42.8 °F 67% 29.92 in 10.0 mi SSW 8.1 mph - N/A   Clear
5:35 AM 55.4 °F 44.6 °F 67% 29.93 in 10.0 mi SSW 8.1 mph - N/A   Clear
5:55 AM 53.6 °F 44.6 °F 72% 29.93 in 10.0 mi SSW 10.4 mph - N/A   Clear
6:15 AM 55.4 °F 44.6 °F 67% 29.94 in 10.0 mi SSW 10.4 mph - N/A   Clear
6:35 AM 53.6 °F 44.6 °F 72% 29.94 in 10.0 mi SSW 9.2 mph - N/A   Clear
6:55 AM 53.6 °F 44.6 °F 72% 29.94 in 10.0 mi SSW 9.2 mph - N/A   Clear
7:15 AM 53.6 °F 46.4 °F 77% 29.95 in 10.0 mi SSW 9.2 mph - N/A   Clear
7:35 AM 55.4 °F 46.4 °F 72% 29.96 in 10.0 mi SSW 11.5 mph - N/A   Clear
7:55 AM 55.4 °F 46.4 °F 72% 29.96 in 10.0 mi SW 9.2 mph - N/A   Clear
8:15 AM 57.2 °F 46.4 °F 67% 29.97 in 10.0 mi SW 9.2 mph - N/A   Clear
8:35 AM 59.0 °F 46.4 °F 63% 29.97 in 10.0 mi SW 9.2 mph - N/A   Clear
8:55 AM 59.0 °F 46.4 °F 63% 29.98 in 10.0 mi SW 15.0 mph - N/A   Scattered Clouds
9:15 AM 60.8 °F 46.4 °F 59% 29.98 in 10.0 mi SW 6.9 mph 11.5 mph N/A   Mostly Cloudy
9:35 AM 60.8 °F 46.4 °F 59% 29.97 in 10.0 mi SW 9.2 mph - N/A   Overcast
9:55 AM 62.6 °F 48.2 °F 59% 29.99 in 10.0 mi SW 11.5 mph - N/A   Mostly Cloudy
10:15 AM 62.6 °F 48.2 °F 59% 29.98 in 10.0 mi SSW 10.4 mph 16.1 mph N/A   Scattered Clouds
10:35 AM 62.6 °F 48.2 °F 59% 29.97 in 10.0 mi SSW 8.1 mph - N/A   Clear
10:55 AM 64.4 °F 46.4 °F 52% 29.96 in 10.0 mi SSW 9.2 mph - N/A   Clear
11:15 AM 64.4 °F 46.4 °F 52% 29.96 in 10.0 mi SSW 8.1 mph - N/A   Scattered Clouds
11:35 AM 66.2 °F 46.4 °F 49% 29.96 in 10.0 mi SSW 13.8 mph 17.3 mph N/A   Scattered Clouds
11:55 AM 66.2 °F 44.6 °F 46% 29.94 in 10.0 mi SSW 10.4 mph - N/A   Scattered Clouds
12:15 PM 68.0 °F 42.8 °F 40% 29.94 in 10.0 mi SSW 16.1 mph 20.7 mph N/A   Scattered Clouds
12:35 PM 68.0 °F 42.8 °F 40% 29.94 in 10.0 mi SSW 12.7 mph 18.4 mph N/A   Clear
12:55 PM 68.0 °F 41.0 °F 37% 29.93 in 10.0 mi SSW 13.8 mph - N/A   Scattered Clouds
1:15 PM 68.0 °F 37.4 °F 33% 29.92 in 10.0 mi WSW 15.0 mph 23.0 mph N/A   Scattered Clouds
1:35 PM 68.0 °F 41.0 °F 37% 29.91 in 10.0 mi SW 10.4 mph - N/A   Scattered Clouds
1:55 PM 68.0 °F 39.2 °F 35% 29.91 in 10.0 mi SSW 6.9 mph 19.6 mph N/A   Scattered Clouds
2:15 PM 68.0 °F 37.4 °F 33% 29.90 in 10.0 mi SSW 15.0 mph 18.4 mph N/A   Scattered Clouds
2:35 PM 69.8 °F 37.4 °F 31% 29.89 in 10.0 mi SSW 13.8 mph 17.3 mph N/A   Scattered Clouds
2:55 PM 69.8 °F 37.4 °F 31% 29.88 in 10.0 mi South 9.2 mph - N/A   Scattered Clouds
3:15 PM 69.8 °F 37.4 °F 31% 29.88 in 10.0 mi SSW 13.8 mph 21.9 mph N/A   Scattered Clouds
3:35 PM 69.8 °F 39.2 °F 33% 29.87 in 10.0 mi SSW 10.4 mph - N/A   Scattered Clouds
3:55 PM 69.8 °F 39.2 °F 33% 29.86 in 10.0 mi SSW 10.4 mph 17.3 mph N/A   Clear
4:15 PM 69.8 °F 39.2 °F 33% 29.86 in 10.0 mi South 9.2 mph - N/A   Clear
4:35 PM 68.0 °F 41.0 °F 37% 29.85 in 10.0 mi South 11.5 mph 16.1 mph N/A   Clear
4:55 PM 69.8 °F 41.0 °F 35% 29.85 in 10.0 mi South 12.7 mph 17.3 mph N/A   Clear
5:15 PM 68.0 °F 41.0 °F 37% 29.85 in 10.0 mi South 12.7 mph - N/A   Clear
5:35 PM 68.0 °F 39.2 °F 35% 29.86 in 10.0 mi South 13.8 mph 19.6 mph N/A   Clear
5:55 PM 68.0 °F 39.2 °F 35% 29.86 in 10.0 mi South 13.8 mph - N/A   Clear
6:15 PM 68.0 °F 41.0 °F 37% 29.86 in 10.0 mi South 9.2 mph - N/A   Clear
6:35 PM 66.2 °F 41.0 °F 40% 29.87 in 10.0 mi South 12.7 mph 17.3 mph N/A   Clear
6:55 PM 64.4 °F 41.0 °F 42% 29.87 in 10.0 mi South 9.2 mph - N/A   Clear
7:15 PM 64.4 °F 42.8 °F 45% 29.87 in 10.0 mi South 6.9 mph - N/A   Clear
7:35 PM 64.4 °F 42.8 °F 45% 29.86 in 10.0 mi SSE 8.1 mph - N/A   Clear
7:55 PM 62.6 °F 42.8 °F 48% 29.86 in 10.0 mi SSE 5.8 mph - N/A   Clear
8:15 PM 62.6 °F 42.8 °F 48% 29.86 in 10.0 mi SSE 5.8 mph - N/A   Clear
8:35 PM 60.8 °F 42.8 °F 52% 29.86 in 10.0 mi SSE 4.6 mph - N/A   Clear
8:55 PM 60.8 °F 42.8 °F 52% 29.87 in 10.0 mi SSE 3.5 mph - N/A   Clear
9:15 PM 59.0 °F 42.8 °F 55% 29.87 in 10.0 mi SSE 3.5 mph - N/A   Clear
9:35 PM 55.4 °F 42.8 °F 63% 29.88 in 10.0 mi SE 3.5 mph - N/A   Clear
9:55 PM 59.0 °F 42.8 °F 55% 29.88 in 10.0 mi SSE 3.5 mph - N/A   Clear
10:15 PM 57.2 °F 42.8 °F 59% 29.88 in 10.0 mi Calm Calm - N/A   Clear
10:35 PM 59.0 °F 42.8 °F 55% 29.87 in 10.0 mi SSE 5.8 mph - N/A   Mostly Cloudy
10:55 PM 59.0 °F 44.6 °F 59% 29.86 in 10.0 mi SE 8.1 mph - N/A   Scattered Clouds
11:15 PM 60.8 °F 44.6 °F 55% 29.86 in 10.0 mi SSE 9.2 mph - N/A   Scattered Clouds
11:35 PM 60.8 °F 46.4 °F 59% 29.85 in 10.0 mi SSE 6.9 mph - N/A   Mostly Cloudy
11:55 PM 60.8 °F 46.4 °F 59% 29.86 in 10.0 mi South 6.9 mph - N/A   Overcast